sensor_id;sensor_type;location;lat;lon;timestamp;P1;durP1;ratioP1;P2;durP2;ratioP2
10232;SDS011;5161;48.174;11.756;2023-04-15T00:01:18;4.87;;;3.93;;
10232;SDS011;5161;48.174;11.756;2023-04-15T00:03:44;4.63;;;4.00;;
10232;SDS011;5161;48.174;11.756;2023-04-15T00:06:11;4.77;;;3.80;;
10232;SDS011;5161;48.174;11.756;2023-04-15T00:08:37;5.13;;;3.80;;
10232;SDS011;5161;48.174;11.756;2023-04-15T00:11:03;5.07;;;4.03;;
10232;SDS011;5161;48.174;11.756;2023-04-15T00:13:30;5.27;;;4.00;;
10232;SDS011;5161;48.174;11.756;2023-04-15T00:16:07;5.53;;;3.90;;
10232;SDS011;5161;48.174;11.756;2023-04-15T00:18:39;4.77;;;4.17;;
10232;SDS011;5161;48.174;11.756;2023-04-15T00:21:14;4.53;;;4.10;;
10232;SDS011;5161;48.174;11.756;2023-04-15T00:23:48;5.10;;;4.30;;
10232;SDS011;5161;48.174;11.756;2023-04-15T00:26:29;4.60;;;4.20;;
10232;SDS011;5161;48.174;11.756;2023-04-15T00:28:55;4.60;;;4.20;;
10232;SDS011;5161;48.174;11.756;2023-04-15T00:31:25;5.10;;;4.60;;
10232;SDS011;5161;48.174;11.756;2023-04-15T00:36:54;6.00;;;4.40;;
10232;SDS011;5161;48.174;11.756;2023-04-15T00:39:26;4.77;;;4.37;;
10232;SDS011;5161;48.174;11.756;2023-04-15T00:41:57;5.37;;;4.47;;
10232;SDS011;5161;48.174;11.756;2023-04-15T00:44:28;6.33;;;4.77;;
10232;SDS011;5161;48.174;11.756;2023-04-15T00:47:00;6.37;;;5.20;;
10232;SDS011;5161;48.174;11.756;2023-04-15T00:49:38;7.57;;;4.57;;
10232;SDS011;5161;48.174;11.756;2023-04-15T00:52:13;5.87;;;4.60;;
10232;SDS011;5161;48.174;11.756;2023-04-15T00:54:52;6.50;;;4.87;;
10232;SDS011;5161;48.174;11.756;2023-04-15T00:57:20;7.40;;;4.87;;
10232;SDS011;5161;48.174;11.756;2023-04-15T00:59:50;6.33;;;4.97;;
10232;SDS011;5161;48.174;11.756;2023-04-15T01:02:20;5.97;;;5.07;;
10232;SDS011;5161;48.174;11.756;2023-04-15T01:05:01;5.60;;;4.93;;
10232;SDS011;5161;48.174;11.756;2023-04-15T01:07:48;6.73;;;5.13;;
10232;SDS011;5161;48.174;11.756;2023-04-15T01:10:17;6.73;;;5.37;;
10232;SDS011;5161;48.174;11.756;2023-04-15T01:12:42;7.00;;;5.00;;
10232;SDS011;5161;48.174;11.756;2023-04-15T01:15:08;8.83;;;5.27;;
10232;SDS011;5161;48.174;11.756;2023-04-15T01:17:35;7.70;;;5.63;;
10232;SDS011;5161;48.174;11.756;2023-04-15T01:20:01;6.03;;;5.43;;
10232;SDS011;5161;48.174;11.756;2023-04-15T01:22:27;7.93;;;5.67;;
10232;SDS011;5161;48.174;11.756;2023-04-15T01:25:00;6.83;;;5.77;;
10232;SDS011;5161;48.174;11.756;2023-04-15T01:27:30;8.17;;;5.50;;
10232;SDS011;5161;48.174;11.756;2023-04-15T01:29:57;7.87;;;5.77;;
10232;SDS011;5161;48.174;11.756;2023-04-15T01:32:22;7.40;;;5.63;;
10232;SDS011;5161;48.174;11.756;2023-04-15T01:34:48;6.10;;;5.47;;
10232;SDS011;5161;48.174;11.756;2023-04-15T01:37:13;8.17;;;5.77;;
10232;SDS011;5161;48.174;11.756;2023-04-15T01:39:39;7.50;;;5.60;;
10232;SDS011;5161;48.174;11.756;2023-04-15T01:42:05;7.57;;;5.80;;
10232;SDS011;5161;48.174;11.756;2023-04-15T01:44:30;8.27;;;5.53;;
10232;SDS011;5161;48.174;11.756;2023-04-15T01:46:56;6.73;;;5.70;;
10232;SDS011;5161;48.174;11.756;2023-04-15T01:49:22;6.67;;;5.90;;
10232;SDS011;5161;48.174;11.756;2023-04-15T01:51:48;7.70;;;5.93;;
10232;SDS011;5161;48.174;11.756;2023-04-15T01:54:13;7.57;;;6.17;;
10232;SDS011;5161;48.174;11.756;2023-04-15T01:56:39;6.83;;;6.13;;
10232;SDS011;5161;48.174;11.756;2023-04-15T01:59:04;9.03;;;6.07;;
10232;SDS011;5161;48.174;11.756;2023-04-15T02:01:30;9.07;;;6.43;;
10232;SDS011;5161;48.174;11.756;2023-04-15T02:03:55;8.10;;;6.17;;
10232;SDS011;5161;48.174;11.756;2023-04-15T02:06:21;6.60;;;5.93;;
10232;SDS011;5161;48.174;11.756;2023-04-15T02:08:47;8.47;;;6.33;;
10232;SDS011;5161;48.174;11.756;2023-04-15T02:11:13;7.17;;;6.30;;
10232;SDS011;5161;48.174;11.756;2023-04-15T02:13:39;7.50;;;5.97;;
10232;SDS011;5161;48.174;11.756;2023-04-15T02:16:13;7.00;;;6.03;;
10232;SDS011;5161;48.174;11.756;2023-04-15T02:18:46;8.00;;;6.27;;
10232;SDS011;5161;48.174;11.756;2023-04-15T02:21:11;7.30;;;6.57;;
10232;SDS011;5161;48.174;11.756;2023-04-15T02:23:37;7.50;;;6.43;;
10232;SDS011;5161;48.174;11.756;2023-04-15T02:26:03;6.93;;;6.23;;
10232;SDS011;5161;48.174;11.756;2023-04-15T02:28:29;7.83;;;6.30;;
10232;SDS011;5161;48.174;11.756;2023-04-15T02:30:54;7.67;;;6.27;;
10232;SDS011;5161;48.174;11.756;2023-04-15T02:33:21;7.43;;;6.20;;
10232;SDS011;5161;48.174;11.756;2023-04-15T02:35:47;7.40;;;6.57;;
10232;SDS011;5161;48.174;11.756;2023-04-15T02:38:12;6.60;;;6.00;;
10232;SDS011;5161;48.174;11.756;2023-04-15T02:40:40;9.77;;;6.20;;
10232;SDS011;5161;48.174;11.756;2023-04-15T02:43:06;9.53;;;6.43;;
10232;SDS011;5161;48.174;11.756;2023-04-15T02:45:32;6.33;;;5.73;;
10232;SDS011;5161;48.174;11.756;2023-04-15T02:47:57;7.83;;;5.83;;
10232;SDS011;5161;48.174;11.756;2023-04-15T02:50:23;6.93;;;6.27;;
10232;SDS011;5161;48.174;11.756;2023-04-15T02:52:49;6.60;;;5.97;;
10232;SDS011;5161;48.174;11.756;2023-04-15T02:55:16;7.07;;;6.20;;
10232;SDS011;5161;48.174;11.756;2023-04-15T02:57:42;8.67;;;6.27;;
10232;SDS011;5161;48.174;11.756;2023-04-15T03:00:08;6.73;;;6.00;;
10232;SDS011;5161;48.174;11.756;2023-04-15T03:02:36;7.33;;;6.20;;
10232;SDS011;5161;48.174;11.756;2023-04-15T03:05:02;7.00;;;6.30;;
10232;SDS011;5161;48.174;11.756;2023-04-15T03:07:29;6.93;;;6.17;;
10232;SDS011;5161;48.174;11.756;2023-04-15T03:09:56;8.60;;;6.33;;
10232;SDS011;5161;48.174;11.756;2023-04-15T03:12:21;7.67;;;6.30;;
10232;SDS011;5161;48.174;11.756;2023-04-15T03:14:47;6.87;;;6.27;;
10232;SDS011;5161;48.174;11.756;2023-04-15T03:17:12;7.33;;;5.70;;
10232;SDS011;5161;48.174;11.756;2023-04-15T03:19:38;7.13;;;5.87;;
10232;SDS011;5161;48.174;11.756;2023-04-15T03:22:03;7.33;;;6.33;;
10232;SDS011;5161;48.174;11.756;2023-04-15T03:24:29;7.13;;;6.43;;
10232;SDS011;5161;48.174;11.756;2023-04-15T03:26:55;9.07;;;6.30;;
10232;SDS011;5161;48.174;11.756;2023-04-15T03:29:21;6.60;;;5.80;;
10232;SDS011;5161;48.174;11.756;2023-04-15T03:31:47;6.87;;;6.17;;
10232;SDS011;5161;48.174;11.756;2023-04-15T03:34:13;7.00;;;6.30;;
10232;SDS011;5161;48.174;11.756;2023-04-15T03:36:38;9.13;;;6.67;;
10232;SDS011;5161;48.174;11.756;2023-04-15T03:39:04;8.03;;;6.17;;
10232;SDS011;5161;48.174;11.756;2023-04-15T03:41:30;7.50;;;6.63;;
10232;SDS011;5161;48.174;11.756;2023-04-15T03:43:56;7.50;;;6.47;;
10232;SDS011;5161;48.174;11.756;2023-04-15T03:46:22;6.80;;;5.93;;
10232;SDS011;5161;48.174;11.756;2023-04-15T03:48:48;8.13;;;6.83;;
10232;SDS011;5161;48.174;11.756;2023-04-15T03:51:13;7.57;;;6.37;;
10232;SDS011;5161;48.174;11.756;2023-04-15T03:53:39;7.07;;;6.30;;
10232;SDS011;5161;48.174;11.756;2023-04-15T03:56:04;8.13;;;6.07;;
10232;SDS011;5161;48.174;11.756;2023-04-15T03:58:31;7.20;;;6.50;;
10232;SDS011;5161;48.174;11.756;2023-04-15T04:00:57;7.13;;;6.43;;
10232;SDS011;5161;48.174;11.756;2023-04-15T04:03:22;8.50;;;6.37;;
10232;SDS011;5161;48.174;11.756;2023-04-15T04:05:48;7.67;;;6.30;;
10232;SDS011;5161;48.174;11.756;2023-04-15T04:08:14;7.20;;;6.10;;
10232;SDS011;5161;48.174;11.756;2023-04-15T04:10:40;6.80;;;6.20;;
10232;SDS011;5161;48.174;11.756;2023-04-15T04:13:06;7.83;;;6.40;;
10232;SDS011;5161;48.174;11.756;2023-04-15T04:15:31;7.97;;;6.27;;
10232;SDS011;5161;48.174;11.756;2023-04-15T04:17:57;7.80;;;6.97;;
10232;SDS011;5161;48.174;11.756;2023-04-15T04:20:23;6.60;;;6.00;;
10232;SDS011;5161;48.174;11.756;2023-04-15T04:22:48;9.90;;;6.80;;
10232;SDS011;5161;48.174;11.756;2023-04-15T04:25:14;8.23;;;6.50;;
10232;SDS011;5161;48.174;11.756;2023-04-15T04:27:40;8.80;;;6.30;;
10232;SDS011;5161;48.174;11.756;2023-04-15T04:30:06;8.27;;;6.50;;
10232;SDS011;5161;48.174;11.756;2023-04-15T04:32:32;8.10;;;6.43;;
10232;SDS011;5161;48.174;11.756;2023-04-15T04:34:57;7.03;;;6.33;;
10232;SDS011;5161;48.174;11.756;2023-04-15T04:37:23;8.03;;;6.33;;
10232;SDS011;5161;48.174;11.756;2023-04-15T04:39:49;6.97;;;6.27;;
10232;SDS011;5161;48.174;11.756;2023-04-15T04:42:14;7.60;;;6.57;;
10232;SDS011;5161;48.174;11.756;2023-04-15T04:44:40;7.37;;;5.87;;
10232;SDS011;5161;48.174;11.756;2023-04-15T04:47:05;7.40;;;5.77;;
10232;SDS011;5161;48.174;11.756;2023-04-15T04:49:31;6.70;;;5.43;;
10232;SDS011;5161;48.174;11.756;2023-04-15T04:51:57;6.00;;;5.40;;
10232;SDS011;5161;48.174;11.756;2023-04-15T04:54:23;8.13;;;5.40;;
10232;SDS011;5161;48.174;11.756;2023-04-15T04:56:48;6.10;;;5.50;;
10232;SDS011;5161;48.174;11.756;2023-04-15T04:59:14;7.70;;;5.57;;
10232;SDS011;5161;48.174;11.756;2023-04-15T05:01:47;5.97;;;5.10;;
10232;SDS011;5161;48.174;11.756;2023-04-15T05:04:12;6.70;;;5.20;;
10232;SDS011;5161;48.174;11.756;2023-04-15T05:06:38;7.33;;;5.43;;
10232;SDS011;5161;48.174;11.756;2023-04-15T05:09:03;7.83;;;5.03;;
10232;SDS011;5161;48.174;11.756;2023-04-15T05:11:29;5.40;;;4.90;;
10232;SDS011;5161;48.174;11.756;2023-04-15T05:13:55;7.00;;;5.53;;
10232;SDS011;5161;48.174;11.756;2023-04-15T05:16:22;7.67;;;5.50;;
10232;SDS011;5161;48.174;11.756;2023-04-15T05:18:49;6.37;;;5.03;;
10232;SDS011;5161;48.174;11.756;2023-04-15T05:21:15;7.93;;;5.20;;
10232;SDS011;5161;48.174;11.756;2023-04-15T05:23:41;7.97;;;5.33;;
10232;SDS011;5161;48.174;11.756;2023-04-15T05:26:07;7.40;;;5.00;;
10232;SDS011;5161;48.174;11.756;2023-04-15T05:28:33;7.50;;;5.13;;
10232;SDS011;5161;48.174;11.756;2023-04-15T05:30:58;6.13;;;5.10;;
10232;SDS011;5161;48.174;11.756;2023-04-15T05:33:24;5.00;;;4.47;;
10232;SDS011;5161;48.174;11.756;2023-04-15T05:35:50;5.67;;;4.83;;
10232;SDS011;5161;48.174;11.756;2023-04-15T05:38:15;5.47;;;4.70;;
10232;SDS011;5161;48.174;11.756;2023-04-15T05:40:41;7.17;;;4.77;;
10232;SDS011;5161;48.174;11.756;2023-04-15T05:43:07;5.80;;;4.90;;
10232;SDS011;5161;48.174;11.756;2023-04-15T05:45:32;5.13;;;4.63;;
10232;SDS011;5161;48.174;11.756;2023-04-15T05:47:58;7.00;;;4.90;;
10232;SDS011;5161;48.174;11.756;2023-04-15T05:50:23;7.03;;;4.60;;
10232;SDS011;5161;48.174;11.756;2023-04-15T05:52:49;6.63;;;4.70;;
10232;SDS011;5161;48.174;11.756;2023-04-15T05:55:15;5.63;;;4.70;;
10232;SDS011;5161;48.174;11.756;2023-04-15T05:57:41;5.30;;;4.80;;
10232;SDS011;5161;48.174;11.756;2023-04-15T06:00:06;5.77;;;4.50;;
10232;SDS011;5161;48.174;11.756;2023-04-15T06:02:32;4.77;;;4.27;;
10232;SDS011;5161;48.174;11.756;2023-04-15T06:04:58;5.53;;;4.40;;
10232;SDS011;5161;48.174;11.756;2023-04-15T06:07:24;6.00;;;4.73;;
10232;SDS011;5161;48.174;11.756;2023-04-15T06:09:50;6.73;;;4.83;;
10232;SDS011;5161;48.174;11.756;2023-04-15T06:12:16;4.83;;;4.07;;
10232;SDS011;5161;48.174;11.756;2023-04-15T06:14:41;6.87;;;4.40;;
10232;SDS011;5161;48.174;11.756;2023-04-15T06:17:07;5.60;;;4.30;;
10232;SDS011;5161;48.174;11.756;2023-04-15T06:19:33;4.60;;;4.20;;
10232;SDS011;5161;48.174;11.756;2023-04-15T06:22:00;4.80;;;4.13;;
10232;SDS011;5161;48.174;11.756;2023-04-15T06:24:26;4.37;;;3.97;;
10232;SDS011;5161;48.174;11.756;2023-04-15T06:26:52;5.37;;;4.37;;
10232;SDS011;5161;48.174;11.756;2023-04-15T06:29:18;4.30;;;3.90;;
10232;SDS011;5161;48.174;11.756;2023-04-15T06:31:43;6.67;;;4.10;;
10232;SDS011;5161;48.174;11.756;2023-04-15T06:34:11;5.68;;;4.50;;
10232;SDS011;5161;48.174;11.756;2023-04-15T06:36:36;5.03;;;4.00;;
10232;SDS011;5161;48.174;11.756;2023-04-15T06:39:02;4.63;;;3.87;;
10232;SDS011;5161;48.174;11.756;2023-04-15T06:41:27;5.13;;;4.10;;
10232;SDS011;5161;48.174;11.756;2023-04-15T06:43:53;5.90;;;4.00;;
10232;SDS011;5161;48.174;11.756;2023-04-15T06:46:19;5.03;;;3.80;;
10232;SDS011;5161;48.174;11.756;2023-04-15T06:48:44;5.43;;;3.87;;
10232;SDS011;5161;48.174;11.756;2023-04-15T06:51:10;5.97;;;3.90;;
10232;SDS011;5161;48.174;11.756;2023-04-15T06:53:35;5.37;;;4.03;;
10232;SDS011;5161;48.174;11.756;2023-04-15T06:56:05;5.83;;;3.70;;
10232;SDS011;5161;48.174;11.756;2023-04-15T06:58:34;5.53;;;4.00;;
10232;SDS011;5161;48.174;11.756;2023-04-15T07:01:00;4.20;;;3.60;;
10232;SDS011;5161;48.174;11.756;2023-04-15T07:03:26;5.43;;;3.50;;
10232;SDS011;5161;48.174;11.756;2023-04-15T07:05:52;4.83;;;3.70;;
10232;SDS011;5161;48.174;11.756;2023-04-15T07:08:21;4.57;;;3.87;;
10232;SDS011;5161;48.174;11.756;2023-04-15T07:10:47;7.80;;;3.90;;
10232;SDS011;5161;48.174;11.756;2023-04-15T07:13:12;5.50;;;3.70;;
10232;SDS011;5161;48.174;11.756;2023-04-15T07:15:38;4.23;;;3.90;;
10232;SDS011;5161;48.174;11.756;2023-04-15T07:18:04;3.80;;;3.50;;
10232;SDS011;5161;48.174;11.756;2023-04-15T07:20:29;6.07;;;4.10;;
10232;SDS011;5161;48.174;11.756;2023-04-15T07:22:55;4.13;;;3.73;;
10232;SDS011;5161;48.174;11.756;2023-04-15T07:25:21;5.40;;;3.40;;
10232;SDS011;5161;48.174;11.756;2023-04-15T07:27:47;4.20;;;3.40;;
10232;SDS011;5161;48.174;11.756;2023-04-15T07:30:12;5.40;;;3.83;;
10232;SDS011;5161;48.174;11.756;2023-04-15T07:32:38;5.37;;;3.80;;
10232;SDS011;5161;48.174;11.756;2023-04-15T07:35:05;4.53;;;3.40;;
10232;SDS011;5161;48.174;11.756;2023-04-15T07:37:30;6.17;;;3.70;;
10232;SDS011;5161;48.174;11.756;2023-04-15T07:39:56;3.70;;;3.40;;
10232;SDS011;5161;48.174;11.756;2023-04-15T07:42:22;7.17;;;3.77;;
10232;SDS011;5161;48.174;11.756;2023-04-15T07:44:47;4.57;;;3.40;;
10232;SDS011;5161;48.174;11.756;2023-04-15T07:47:13;9.13;;;4.03;;
10232;SDS011;5161;48.174;11.756;2023-04-15T07:49:40;6.73;;;4.20;;
10232;SDS011;5161;48.174;11.756;2023-04-15T07:52:06;6.73;;;3.93;;
10232;SDS011;5161;48.174;11.756;2023-04-15T07:54:32;4.90;;;3.83;;
10232;SDS011;5161;48.174;11.756;2023-04-15T07:56:58;6.60;;;4.70;;
10232;SDS011;5161;48.174;11.756;2023-04-15T07:59:23;4.73;;;3.97;;
10232;SDS011;5161;48.174;11.756;2023-04-15T08:01:49;6.03;;;5.20;;
10232;SDS011;5161;48.174;11.756;2023-04-15T08:04:14;5.90;;;4.60;;
10232;SDS011;5161;48.174;11.756;2023-04-15T08:06:40;7.03;;;5.13;;
10232;SDS011;5161;48.174;11.756;2023-04-15T08:09:06;8.73;;;6.00;;
10232;SDS011;5161;48.174;11.756;2023-04-15T08:11:32;6.63;;;4.00;;
10232;SDS011;5161;48.174;11.756;2023-04-15T08:13:57;9.37;;;5.00;;
10232;SDS011;5161;48.174;11.756;2023-04-15T08:16:24;10.97;;;7.03;;
10232;SDS011;5161;48.174;11.756;2023-04-15T08:18:52;5.47;;;4.10;;
10232;SDS011;5161;48.174;11.756;2023-04-15T08:21:19;5.77;;;3.80;;
10232;SDS011;5161;48.174;11.756;2023-04-15T08:23:45;7.70;;;3.90;;
10232;SDS011;5161;48.174;11.756;2023-04-15T08:26:12;3.90;;;3.50;;
10232;SDS011;5161;48.174;11.756;2023-04-15T08:28:39;6.33;;;3.70;;
10232;SDS011;5161;48.174;11.756;2023-04-15T08:31:05;5.07;;;4.00;;
10232;SDS011;5161;48.174;11.756;2023-04-15T08:33:31;7.10;;;3.70;;
10232;SDS011;5161;48.174;11.756;2023-04-15T08:35:57;4.43;;;3.90;;
10232;SDS011;5161;48.174;11.756;2023-04-15T08:38:23;8.13;;;4.03;;
10232;SDS011;5161;48.174;11.756;2023-04-15T08:40:48;6.40;;;5.80;;
10232;SDS011;5161;48.174;11.756;2023-04-15T08:43:18;5.03;;;4.13;;
10232;SDS011;5161;48.174;11.756;2023-04-15T08:45:50;5.33;;;3.77;;
10232;SDS011;5161;48.174;11.756;2023-04-15T08:48:16;3.73;;;3.30;;
10232;SDS011;5161;48.174;11.756;2023-04-15T08:50:43;4.63;;;4.03;;
10232;SDS011;5161;48.174;11.756;2023-04-15T08:53:10;4.60;;;3.70;;
10232;SDS011;5161;48.174;11.756;2023-04-15T08:55:37;4.40;;;3.63;;
10232;SDS011;5161;48.174;11.756;2023-04-15T08:58:07;6.83;;;4.80;;
10232;SDS011;5161;48.174;11.756;2023-04-15T09:00:34;6.73;;;4.10;;
10232;SDS011;5161;48.174;11.756;2023-04-15T09:03:00;5.47;;;4.90;;
10232;SDS011;5161;48.174;11.756;2023-04-15T09:05:26;6.20;;;4.50;;
10232;SDS011;5161;48.174;11.756;2023-04-15T09:07:51;4.40;;;3.93;;
10232;SDS011;5161;48.174;11.756;2023-04-15T09:10:17;5.33;;;3.80;;
10232;SDS011;5161;48.174;11.756;2023-04-15T09:12:43;4.63;;;4.23;;
10232;SDS011;5161;48.174;11.756;2023-04-15T09:15:11;7.73;;;5.13;;
10232;SDS011;5161;48.174;11.756;2023-04-15T09:17:43;5.70;;;4.60;;
10232;SDS011;5161;48.174;11.756;2023-04-15T09:20:10;4.43;;;4.03;;
10232;SDS011;5161;48.174;11.756;2023-04-15T09:22:41;5.00;;;4.50;;
10232;SDS011;5161;48.174;11.756;2023-04-15T09:27:55;5.27;;;4.77;;
10232;SDS011;5161;48.174;11.756;2023-04-15T09:30:23;5.83;;;4.47;;
10232;SDS011;5161;48.174;11.756;2023-04-15T09:32:55;6.90;;;5.07;;
10232;SDS011;5161;48.174;11.756;2023-04-15T09:35:23;6.10;;;5.03;;
10232;SDS011;5161;48.174;11.756;2023-04-15T09:37:50;6.73;;;4.73;;
10232;SDS011;5161;48.174;11.756;2023-04-15T09:42:57;5.17;;;4.70;;
10232;SDS011;5161;48.174;11.756;2023-04-15T09:45:23;6.13;;;5.10;;
10232;SDS011;5161;48.174;11.756;2023-04-15T09:47:50;6.30;;;5.33;;
10232;SDS011;5161;48.174;11.756;2023-04-15T09:50:17;6.30;;;5.37;;
10232;SDS011;5161;48.174;11.756;2023-04-15T09:52:43;7.10;;;5.80;;
10232;SDS011;5161;48.174;11.756;2023-04-15T09:55:09;6.93;;;6.20;;
10232;SDS011;5161;48.174;11.756;2023-04-15T09:57:36;11.27;;;6.37;;
10232;SDS011;5161;48.174;11.756;2023-04-15T10:00:03;8.07;;;6.50;;
10232;SDS011;5161;48.174;11.756;2023-04-15T10:02:30;7.60;;;6.20;;
10232;SDS011;5161;48.174;11.756;2023-04-15T10:04:56;6.80;;;6.17;;
10232;SDS011;5161;48.174;11.756;2023-04-15T10:07:22;10.30;;;6.30;;
10232;SDS011;5161;48.174;11.756;2023-04-15T10:09:48;8.60;;;6.40;;
10232;SDS011;5161;48.174;11.756;2023-04-15T10:12:17;9.03;;;6.20;;
10232;SDS011;5161;48.174;11.756;2023-04-15T10:14:44;6.50;;;5.90;;
10232;SDS011;5161;48.174;11.756;2023-04-15T10:17:16;7.40;;;6.60;;
10232;SDS011;5161;48.174;11.756;2023-04-15T10:19:42;6.20;;;5.60;;
10232;SDS011;5161;48.174;11.756;2023-04-15T10:22:09;7.53;;;5.97;;
10232;SDS011;5161;48.174;11.756;2023-04-15T10:24:34;7.90;;;5.93;;
10232;SDS011;5161;48.174;11.756;2023-04-15T10:27:02;8.10;;;6.00;;
10232;SDS011;5161;48.174;11.756;2023-04-15T10:29:29;6.53;;;5.67;;
10232;SDS011;5161;48.174;11.756;2023-04-15T10:31:55;6.37;;;5.70;;
10232;SDS011;5161;48.174;11.756;2023-04-15T10:34:23;6.30;;;5.70;;
10232;SDS011;5161;48.174;11.756;2023-04-15T10:36:49;6.60;;;5.63;;
10232;SDS011;5161;48.174;11.756;2023-04-15T10:42:15;6.23;;;5.63;;
10232;SDS011;5161;48.174;11.756;2023-04-15T10:44:42;7.30;;;5.70;;
10232;SDS011;5161;48.174;11.756;2023-04-15T10:47:16;6.43;;;5.83;;
10232;SDS011;5161;48.174;11.756;2023-04-15T10:49:44;8.30;;;6.07;;
10232;SDS011;5161;48.174;11.756;2023-04-15T10:52:10;6.60;;;5.90;;
10232;SDS011;5161;48.174;11.756;2023-04-15T10:54:36;6.73;;;6.10;;
10232;SDS011;5161;48.174;11.756;2023-04-15T10:59:35;9.93;;;5.63;;
10232;SDS011;5161;48.174;11.756;2023-04-15T11:02:02;8.40;;;6.00;;
10232;SDS011;5161;48.174;11.756;2023-04-15T11:04:50;7.03;;;6.07;;
10232;SDS011;5161;48.174;11.756;2023-04-15T11:12:51;8.73;;;6.60;;
10232;SDS011;5161;48.174;11.756;2023-04-15T11:20:46;7.00;;;6.07;;
10232;SDS011;5161;48.174;11.756;2023-04-15T11:23:17;8.37;;;6.77;;
10232;SDS011;5161;48.174;11.756;2023-04-15T11:25:44;6.83;;;6.20;;
10232;SDS011;5161;48.174;11.756;2023-04-15T11:28:10;10.20;;;6.93;;
10232;SDS011;5161;48.174;11.756;2023-04-15T11:30:37;8.33;;;6.70;;
10232;SDS011;5161;48.174;11.756;2023-04-15T11:33:07;7.53;;;6.67;;
10232;SDS011;5161;48.174;11.756;2023-04-15T11:35:36;7.57;;;6.60;;
10232;SDS011;5161;48.174;11.756;2023-04-15T11:38:11;7.90;;;6.43;;
10232;SDS011;5161;48.174;11.756;2023-04-15T11:40:41;8.93;;;6.60;;
10232;SDS011;5161;48.174;11.756;2023-04-15T11:43:17;7.20;;;6.40;;
10232;SDS011;5161;48.174;11.756;2023-04-15T11:45:51;7.13;;;6.43;;
10232;SDS011;5161;48.174;11.756;2023-04-15T11:48:19;7.60;;;6.80;;
10232;SDS011;5161;48.174;11.756;2023-04-15T11:50:51;9.07;;;7.10;;
10232;SDS011;5161;48.174;11.756;2023-04-15T11:53:20;9.83;;;6.73;;
10232;SDS011;5161;48.174;11.756;2023-04-15T11:55:48;8.03;;;6.57;;
10232;SDS011;5161;48.174;11.756;2023-04-15T11:58:19;7.40;;;6.67;;
10232;SDS011;5161;48.174;11.756;2023-04-15T12:00:53;8.57;;;7.07;;
10232;SDS011;5161;48.174;11.756;2023-04-15T12:08:48;7.57;;;6.70;;
10232;SDS011;5161;48.174;11.756;2023-04-15T12:13:52;7.60;;;6.83;;
10232;SDS011;5161;48.174;11.756;2023-04-15T12:16:19;7.60;;;6.80;;
10232;SDS011;5161;48.174;11.756;2023-04-15T12:18:46;9.00;;;7.50;;
10232;SDS011;5161;48.174;11.756;2023-04-15T12:21:12;7.63;;;6.83;;
10232;SDS011;5161;48.174;11.756;2023-04-15T12:23:51;7.50;;;6.70;;
10232;SDS011;5161;48.174;11.756;2023-04-15T12:26:18;7.70;;;6.90;;
10232;SDS011;5161;48.174;11.756;2023-04-15T12:28:54;7.07;;;6.37;;
10232;SDS011;5161;48.174;11.756;2023-04-15T12:31:24;7.20;;;6.50;;
10232;SDS011;5161;48.174;11.756;2023-04-15T12:33:50;6.83;;;6.03;;
10232;SDS011;5161;48.174;11.756;2023-04-15T12:36:15;6.77;;;6.00;;
10232;SDS011;5161;48.174;11.756;2023-04-15T12:38:41;7.10;;;6.07;;
10232;SDS011;5161;48.174;11.756;2023-04-15T12:41:07;6.27;;;5.63;;
10232;SDS011;5161;48.174;11.756;2023-04-15T12:43:32;6.80;;;5.83;;
10232;SDS011;5161;48.174;11.756;2023-04-15T12:45:58;6.30;;;5.70;;
10232;SDS011;5161;48.174;11.756;2023-04-15T12:48:23;7.37;;;6.00;;
10232;SDS011;5161;48.174;11.756;2023-04-15T12:50:49;7.80;;;6.10;;
10232;SDS011;5161;48.174;11.756;2023-04-15T12:53:14;6.57;;;5.80;;
10232;SDS011;5161;48.174;11.756;2023-04-15T12:55:40;8.27;;;5.60;;
10232;SDS011;5161;48.174;11.756;2023-04-15T12:58:06;7.73;;;5.23;;
10232;SDS011;5161;48.174;11.756;2023-04-15T13:00:33;7.53;;;4.90;;
10232;SDS011;5161;48.174;11.756;2023-04-15T13:02:58;5.57;;;4.43;;
10232;SDS011;5161;48.174;11.756;2023-04-15T13:05:24;6.67;;;4.60;;
10232;SDS011;5161;48.174;11.756;2023-04-15T13:07:50;4.40;;;3.97;;
10232;SDS011;5161;48.174;11.756;2023-04-15T13:10:15;5.83;;;4.30;;
10232;SDS011;5161;48.174;11.756;2023-04-15T13:12:41;7.40;;;4.57;;
10232;SDS011;5161;48.174;11.756;2023-04-15T13:15:07;5.90;;;5.03;;
10232;SDS011;5161;48.174;11.756;2023-04-15T13:17:35;7.13;;;6.10;;
10232;SDS011;5161;48.174;11.756;2023-04-15T13:20:00;8.00;;;7.20;;
10232;SDS011;5161;48.174;11.756;2023-04-15T13:22:26;24.67;;;15.57;;
10232;SDS011;5161;48.174;11.756;2023-04-15T13:24:52;21.07;;;15.53;;
10232;SDS011;5161;48.174;11.756;2023-04-15T13:27:17;44.03;;;29.13;;
10232;SDS011;5161;48.174;11.756;2023-04-15T13:29:43;21.20;;;16.00;;
10232;SDS011;5161;48.174;11.756;2023-04-15T13:32:08;9.60;;;8.60;;
10232;SDS011;5161;48.174;11.756;2023-04-15T13:34:34;11.70;;;9.13;;
10232;SDS011;5161;48.174;11.756;2023-04-15T13:37:05;12.23;;;10.93;;
10232;SDS011;5161;48.174;11.756;2023-04-15T13:39:31;11.80;;;10.50;;
10232;SDS011;5161;48.174;11.756;2023-04-15T13:41:57;9.17;;;8.27;;
10232;SDS011;5161;48.174;11.756;2023-04-15T13:44:22;9.33;;;8.17;;
10232;SDS011;5161;48.174;11.756;2023-04-15T13:46:48;9.30;;;7.80;;
10232;SDS011;5161;48.174;11.756;2023-04-15T13:49:13;8.37;;;7.60;;
10232;SDS011;5161;48.174;11.756;2023-04-15T13:51:39;10.30;;;7.60;;
10232;SDS011;5161;48.174;11.756;2023-04-15T13:54:04;8.67;;;7.70;;
10232;SDS011;5161;48.174;11.756;2023-04-15T13:56:30;8.83;;;7.67;;
10232;SDS011;5161;48.174;11.756;2023-04-15T13:58:56;8.27;;;7.47;;
10232;SDS011;5161;48.174;11.756;2023-04-15T14:01:23;9.33;;;7.63;;
10232;SDS011;5161;48.174;11.756;2023-04-15T14:03:49;9.70;;;7.80;;
10232;SDS011;5161;48.174;11.756;2023-04-15T14:06:15;8.60;;;7.73;;
10232;SDS011;5161;48.174;11.756;2023-04-15T14:08:40;8.33;;;7.40;;
10232;SDS011;5161;48.174;11.756;2023-04-15T14:11:06;7.87;;;7.17;;
10232;SDS011;5161;48.174;11.756;2023-04-15T14:13:32;7.90;;;7.10;;
10232;SDS011;5161;48.174;11.756;2023-04-15T14:15:57;7.60;;;6.80;;
10232;SDS011;5161;48.174;11.756;2023-04-15T14:18:23;10.57;;;6.90;;
10232;SDS011;5161;48.174;11.756;2023-04-15T14:20:48;8.20;;;6.40;;
10232;SDS011;5161;48.174;11.756;2023-04-15T14:23:14;12.83;;;10.27;;
10232;SDS011;5161;48.174;11.756;2023-04-15T14:25:40;7.53;;;6.73;;
10232;SDS011;5161;48.174;11.756;2023-04-15T14:28:05;8.50;;;7.10;;
10232;SDS011;5161;48.174;11.756;2023-04-15T14:30:31;7.27;;;6.57;;
10232;SDS011;5161;48.174;11.756;2023-04-15T14:32:56;6.60;;;5.97;;
10232;SDS011;5161;48.174;11.756;2023-04-15T14:35:22;6.50;;;5.90;;
10232;SDS011;5161;48.174;11.756;2023-04-15T14:37:50;11.07;;;8.57;;
10232;SDS011;5161;48.174;11.756;2023-04-15T14:40:17;6.97;;;6.37;;
10232;SDS011;5161;48.174;11.756;2023-04-15T14:42:43;6.57;;;5.90;;
10232;SDS011;5161;48.174;11.756;2023-04-15T14:45:09;6.33;;;5.73;;
10232;SDS011;5161;48.174;11.756;2023-04-15T14:47:34;7.70;;;5.53;;
10232;SDS011;5161;48.174;11.756;2023-04-15T14:50:00;6.40;;;5.57;;
10232;SDS011;5161;48.174;11.756;2023-04-15T14:52:26;6.30;;;5.53;;
10232;SDS011;5161;48.174;11.756;2023-04-15T14:54:51;5.97;;;5.40;;
10232;SDS011;5161;48.174;11.756;2023-04-15T14:57:17;6.93;;;6.00;;
10232;SDS011;5161;48.174;11.756;2023-04-15T14:59:42;8.03;;;6.83;;
10232;SDS011;5161;48.174;11.756;2023-04-15T15:02:08;7.10;;;6.40;;
10232;SDS011;5161;48.174;11.756;2023-04-15T15:04:34;11.80;;;8.30;;
10232;SDS011;5161;48.174;11.756;2023-04-15T15:07:00;6.40;;;5.80;;
10232;SDS011;5161;48.174;11.756;2023-04-15T15:09:25;6.10;;;5.50;;
10232;SDS011;5161;48.174;11.756;2023-04-15T15:11:51;6.77;;;6.13;;
10232;SDS011;5161;48.174;11.756;2023-04-15T15:14:16;9.13;;;8.20;;
10232;SDS011;5161;48.174;11.756;2023-04-15T15:16:42;6.07;;;5.47;;
10232;SDS011;5161;48.174;11.756;2023-04-15T15:19:08;6.53;;;5.93;;